Time;durP1;ratioP1;P1;durP2;ratioP2;P2;SDS_P1;SDS_P2;PMS_P1;PMS_P2;Temp;Humidity;BMP_temperature;BMP_pressure;BME280_temperature;BME280_humidity;BME280_pressure;Samples;Min_cycle;Max_cycle;Signal;HPM_P1;HPM_P2
2022/11/07 00:00:31;;;;;;;;;;;10.30;89.40;;;;;;5028763;28;1016;-74
2022/11/07 00:02:59;;;;;;;;;;;10.40;89.30;;;;;;5024823;28;1298;-75
2022/11/07 00:05:26;;;;;;;;;;;10.30;88.60;;;;;;5025389;28;1017;-73
2022/11/07 00:07:54;;;;;;;;;;;10.30;88.50;;;;;;5018377;28;1448;-74
2022/11/07 00:10:22;;;;;;;;;;;10.40;88.80;;;;;;5018590;28;1053;-75
2022/11/07 00:12:49;;;;;;;;;;;10.40;89.20;;;;;;5024740;28;1292;-74
2022/11/07 00:15:17;;;;;;;;;;;10.40;88.70;;;;;;5018892;28;1444;-73
2022/11/07 00:17:46;;;;;;;;;;;10.50;88.50;;;;;;5019110;28;1906;-75
2022/11/07 00:20:14;;;;;;;;;;;10.50;88.60;;;;;;5019205;28;1697;-74
2022/11/07 00:22:42;;;;;;;;;;;10.50;88.10;;;;;;5024953;28;1562;-73
2022/11/07 00:25:09;;;;;;;;;;;10.50;88.70;;;;;;5025240;28;1334;-75
2022/11/07 00:27:37;;;;;;;;;;;10.50;88.10;;;;;;5019052;28;1036;-72
2022/11/07 00:30:05;;;;;;;;;;;10.50;89.40;;;;;;5026006;28;1388;-72
2022/11/07 00:32:33;;;;;;;;;;;10.60;88.50;;;;;;5017363;28;1616;-74
2022/11/07 00:35:02;;;;;;;;;;;10.60;88.20;;;;;;5023342;28;1017;-72
2022/11/07 00:37:29;;;;;;;;;;;10.60;88.50;;;;;;5022338;28;1914;-71
2022/11/07 00:39:57;;;;;;;;;;;10.60;88.70;;;;;;5018702;28;1175;-73
2022/11/07 00:42:24;;;;;;;;;;;10.70;88.70;;;;;;5023877;28;1276;-73
2022/11/07 00:44:52;;;;;;;;;;;10.70;88.50;;;;;;5016028;28;1429;-72
2022/11/07 00:47:19;;;;;;;;;;;10.70;89.00;;;;;;5022077;28;1074;-72
2022/11/07 00:49:47;;;;;;;;;;;10.70;88.30;;;;;;5024438;28;1077;-73
2022/11/07 00:52:16;;;;;;;;;;;10.70;88.70;;;;;;5018251;28;1504;-72
2022/11/07 00:54:43;;;;;;;;;;;10.70;88.50;;;;;;5018506;28;1108;-72
2022/11/07 00:57:11;;;;;;;;;;;10.80;88.30;;;;;;5016922;28;1213;-72
2022/11/07 00:59:39;;;;;;;;;;;10.80;88.10;;;;;;5022418;28;1902;-72
2022/11/07 01:02:06;;;;;;;;;;;10.80;88.40;;;;;;5016893;28;1329;-72
2022/11/07 01:07:20;;;;;;;;;;;10.90;88.10;;;;;;5021369;28;1560;-72
2022/11/07 01:09:48;;;;;;;;;;;10.90;88.40;;;;;;5018467;28;1657;-72
2022/11/07 01:12:16;;;;;;;;;;;10.90;88.10;;;;;;5023800;28;1254;-75
2022/11/07 01:14:43;;;;;;;;;;;11.00;89.00;;;;;;5016471;28;1108;-75
2022/11/07 01:17:11;;;;;;;;;;;11.00;88.00;;;;;;5018202;28;1117;-74
2022/11/07 01:19:38;;;;;;;;;;;11.00;88.00;;;;;;5023479;28;1906;-74
2022/11/07 01:22:06;;;;;;;;;;;11.00;88.40;;;;;;5022304;28;1375;-74
2022/11/07 01:24:35;;;;;;;;;;;11.00;88.20;;;;;;5022332;28;1025;-74
2022/11/07 01:27:03;;;;;;;;;;;11.00;88.20;;;;;;5023495;28;1147;-73
2022/11/07 01:29:30;;;;;;;;;;;11.00;87.90;;;;;;5025356;28;1227;-73
2022/11/07 01:31:58;;;;;;;;;;;11.10;88.50;;;;;;5025433;28;1379;-74
2022/11/07 01:34:26;;;;;;;;;;;11.10;88.30;;;;;;5017185;28;1124;-76
2022/11/07 01:36:53;;;;;;;;;;;11.10;87.90;;;;;;5025128;28;1014;-73
2022/11/07 01:39:21;;;;;;;;;;;11.20;88.10;;;;;;5023547;28;1979;-75
2022/11/07 01:41:50;;;;;;;;;;;11.20;88.00;;;;;;5015490;28;1379;-75
2022/11/07 01:44:36;;;;;;;;;;;11.20;88.50;;;;;;5017186;28;1060;-74
2022/11/07 01:47:03;;;;;;;;;;;11.10;88.30;;;;;;5026035;28;1101;-74
2022/11/07 01:49:33;;;;;;;;;;;11.10;88.60;;;;;;5023775;28;1505;-75
2022/11/07 01:52:04;;;;;;;;;;;11.10;88.80;;;;;;5021215;28;1651;-75
2022/11/07 01:54:33;;;;;;;;;;;11.10;88.80;;;;;;5025295;28;1126;-74
2022/11/07 01:57:06;;;;;;;;;;;11.00;88.50;;;;;;5021361;28;1029;-72
2022/11/07 01:59:34;;;;;;;;;;;11.00;88.70;;;;;;5024609;28;1910;-74
2022/11/07 02:02:02;;;;;;;;;;;10.90;89.20;;;;;;5019941;28;1392;-74
2022/11/07 02:04:30;;;;;;;;;;;11.00;89.10;;;;;;5020883;28;1409;-75
2022/11/07 02:07:00;;;;;;;;;;;11.00;88.80;;;;;;5024607;28;1025;-74
2022/11/07 02:09:28;;;;;;;;;;;10.70;88.70;;;;;;5022217;28;1089;-74
2022/11/07 02:11:59;;;;;;;;;;;11.00;89.40;;;;;;5021277;28;1382;-74
2022/11/07 02:20:31;;;;;;;;;;;11.10;89.10;;;;;;5026628;28;1262;-74
2022/11/07 02:23:00;;;;;;;;;;;11.10;89.10;;;;;;5018154;28;1314;-73
2022/11/07 02:25:30;;;;;;;;;;;11.20;89.10;;;;;;5018488;28;1188;-74
2022/11/07 02:27:59;;;;;;;;;;;11.30;89.10;;;;;;5015347;28;1093;-75
2022/11/07 02:30:28;;;;;;;;;;;11.30;89.20;;;;;;5011714;28;1256;-74
2022/11/07 02:32:56;;;;;;;;;;;11.30;88.80;;;;;;5006828;28;1286;-73
2022/11/07 02:35:36;;;;;;;;;;;11.30;88.90;;;;;;5012470;28;1143;-73
2022/11/07 02:38:05;;;;;;;;;;;11.30;89.20;;;;;;5009328;28;1060;-75
2022/11/07 02:40:34;;;;;;;;;;;11.40;89.40;;;;;;5015225;28;1911;-75
2022/11/07 02:43:02;;;;;;;;;;;11.50;89.20;;;;;;5016631;28;1299;-74
2022/11/07 02:45:32;;;;;;;;;;;11.50;89.20;;;;;;5014185;28;1037;-74
2022/11/07 02:48:00;;;;;;;;;;;11.50;88.90;;;;;;5016877;28;1149;-73
2022/11/07 02:50:27;;;;;;;;;;;11.50;89.00;;;;;;5022364;28;1424;-73
2022/11/07 02:52:55;;;;;;;;;;;11.40;88.90;;;;;;5015403;28;1198;-74
2022/11/07 02:55:23;;;;;;;;;;;11.50;89.30;;;;;;5015755;28;1009;-74
2022/11/07 02:57:51;;;;;;;;;;;11.50;89.00;;;;;;5015316;28;1002;-73
2022/11/07 03:00:19;;;;;;;;;;;11.60;89.10;;;;;;5016027;28;1987;-73
2022/11/07 03:02:46;;;;;;;;;;;11.60;89.10;;;;;;5013443;28;1296;-73
2022/11/07 03:05:15;;;;;;;;;;;11.60;89.10;;;;;;5011999;28;1102;-73
2022/11/07 03:07:43;;;;;;;;;;;11.60;89.30;;;;;;5009560;28;1137;-73
2022/11/07 03:10:11;;;;;;;;;;;11.60;89.50;;;;;;5014440;28;1053;-74
2022/11/07 03:12:38;;;;;;;;;;;11.70;89.40;;;;;;5014648;28;1284;-74
2022/11/07 03:15:09;;;;;;;;;;;11.70;89.10;;;;;;5016192;28;1243;-74
2022/11/07 03:17:37;;;;;;;;;;;11.60;89.10;;;;;;5022038;28;1062;-74
2022/11/07 03:20:05;;;;;;;;;;;11.70;89.40;;;;;;5021778;28;1977;-75
2022/11/07 03:22:32;;;;;;;;;;;11.70;89.20;;;;;;5024012;28;1278;-75
2022/11/07 03:25:00;;;;;;;;;;;11.80;89.00;;;;;;5017472;28;1014;-75
2022/11/07 03:27:27;;;;;;;;;;;11.80;89.00;;;;;;5013106;28;1447;-74
2022/11/07 03:29:55;;;;;;;;;;;11.70;89.20;;;;;;5014057;28;1458;-74
2022/11/07 03:32:24;;;;;;;;;;;11.70;89.30;;;;;;5022147;28;1343;-74
2022/11/07 03:34:51;;;;;;;;;;;11.80;89.20;;;;;;5017651;28;1061;-75
2022/11/07 03:37:19;;;;;;;;;;;11.80;89.30;;;;;;5040627;28;1006;-73
2022/11/07 03:39:47;;;;;;;;;;;11.80;89.40;;;;;;5033319;28;1976;-76
2022/11/07 03:42:14;;;;;;;;;;;11.80;89.50;;;;;;5021420;28;1401;-72
2022/11/07 03:44:42;;;;;;;;;;;11.80;89.10;;;;;;5017486;28;1396;-74
2022/11/07 03:47:09;;;;;;;;;;;11.80;89.60;;;;;;5019492;28;1072;-77
2022/11/07 03:49:38;;;;;;;;;;;11.80;89.40;;;;;;5019094;28;1108;-74
2022/11/07 03:52:06;;;;;;;;;;;11.80;89.40;;;;;;5016180;28;1409;-74
2022/11/07 03:54:33;;;;;;;;;;;11.80;89.60;;;;;;5019061;28;1047;-73
2022/11/07 03:57:01;;;;;;;;;;;11.90;89.70;;;;;;5022533;28;1033;-76
2022/11/07 03:59:28;;;;;;;;;;;11.90;89.50;;;;;;5021903;28;2276;-75
2022/11/07 04:01:56;;;;;;;;;;;11.90;89.60;;;;;;5020065;28;1248;-75
2022/11/07 04:04:24;;;;;;;;;;;12.00;89.70;;;;;;5014628;28;1068;-79
2022/11/07 04:06:52;;;;;;;;;;;12.00;89.60;;;;;;5017282;28;1500;-73
2022/11/07 04:09:20;;;;;;;;;;;12.00;89.30;;;;;;5012203;28;1258;-74
2022/11/07 04:17:21;;;;;;;;;;;12.00;90.00;;;;;;5022152;28;1068;-76
2022/11/07 04:19:50;;;;;;;;;;;12.00;89.80;;;;;;5022628;28;1914;-76
2022/11/07 04:22:18;;;;;;;;;;;11.90;89.80;;;;;;5020512;28;1347;-76
2022/11/07 04:24:46;;;;;;;;;;;11.90;90.00;;;;;;5021527;28;1049;-74
2022/11/07 04:30:17;;;;;;;;;;;12.10;90.00;;;;;;5020756;28;1030;-76
2022/11/07 04:32:46;;;;;;;;;;;12.00;90.00;;;;;;5026761;28;1463;-70
2022/11/07 04:35:13;;;;;;;;;;;12.10;90.10;;;;;;5016870;28;1084;-66
2022/11/07 04:37:42;;;;;;;;;;;12.10;90.00;;;;;;5017480;28;1041;-66
2022/11/07 04:40:10;;;;;;;;;;;12.20;90.20;;;;;;5018115;28;1914;-66
2022/11/07 04:42:38;;;;;;;;;;;12.10;90.10;;;;;;5019167;28;1347;-68
2022/11/07 04:45:06;;;;;;;;;;;12.20;90.20;;;;;;5020437;28;1068;-68
2022/11/07 04:47:34;;;;;;;;;;;12.10;90.00;;;;;;5020340;28;1104;-68
2022/11/07 04:50:08;;;;;;;;;;;12.10;90.30;;;;;;5015588;28;1659;-68
2022/11/07 04:52:36;;;;;;;;;;;12.10;90.40;;;;;;5017708;28;1257;-67
2022/11/07 04:55:06;;;;;;;;;;;12.00;90.10;;;;;;5017719;28;1369;-66
2022/11/07 04:57:33;;;;;;;;;;;12.00;90.70;;;;;;5018267;28;1143;-67
2022/11/07 05:00:03;;;;;;;;;;;12.00;90.20;;;;;;5018611;28;1906;-68
2022/11/07 05:02:31;;;;;;;;;;;11.90;90.50;;;;;;5016781;28;1361;-67
2022/11/07 05:05:00;;;;;;;;;;;11.80;90.50;;;;;;5020909;28;1009;-69
2022/11/07 05:07:27;;;;;;;;;;;11.80;91.00;;;;;;5023434;28;1013;-66
2022/11/07 05:09:55;;;;;;;;;;;11.90;91.30;;;;;;5017219;28;1453;-65
2022/11/07 05:12:24;;;;;;;;;;;11.90;90.50;;;;;;5008850;28;1263;-65
2022/11/07 05:14:51;;;;;;;;;;;12.10;90.80;;;;;;5011898;28;987;-66
2022/11/07 05:17:19;;;;;;;;;;;12.10;90.70;;;;;;5021105;28;1078;-66
2022/11/07 05:19:53;;;;;;;;;;;12.00;90.50;;;;;;5014959;28;1910;-66
2022/11/07 05:25:06;;;;;;;;;;;12.20;90.50;;;;;;5015918;28;1326;-68
2022/11/07 05:27:36;;;;;;;;;;;12.10;90.40;;;;;;5013524;28;1075;-67
2022/11/07 05:30:04;;;;;;;;;;;12.10;90.30;;;;;;5018752;28;1158;-68
2022/11/07 05:32:33;;;;;;;;;;;12.20;90.40;;;;;;5015316;28;1326;-68
2022/11/07 05:35:01;;;;;;;;;;;12.20;90.20;;;;;;5018752;28;1432;-68
2022/11/07 05:37:28;;;;;;;;;;;12.20;90.30;;;;;;5013785;28;1266;-66
2022/11/07 05:39:56;;;;;;;;;;;12.10;91.00;;;;;;5017404;28;1930;-67
2022/11/07 05:42:24;;;;;;;;;;;12.10;90.80;;;;;;5019765;28;1316;-68
2022/11/07 05:44:53;;;;;;;;;;;12.10;90.90;;;;;;5022241;28;955;-68
2022/11/07 05:47:20;;;;;;;;;;;12.00;90.60;;;;;;5032967;28;1680;-71
2022/11/07 05:49:48;;;;;;;;;;;12.00;90.70;;;;;;5016855;28;1667;-71
2022/11/07 05:52:15;;;;;;;;;;;11.90;90.70;;;;;;5018673;28;1373;-67
2022/11/07 05:54:43;;;;;;;;;;;11.80;90.80;;;;;;5019841;28;1015;-67
2022/11/07 05:57:11;;;;;;;;;;;11.80;91.00;;;;;;5012784;28;1328;-65
2022/11/07 05:59:38;;;;;;;;;;;11.70;91.20;;;;;;5011083;28;1072;-68
2022/11/07 06:02:08;;;;;;;;;;;11.50;91.40;;;;;;5008882;28;1910;-67
2022/11/07 06:04:36;;;;;;;;;;;11.70;91.40;;;;;;5013065;28;1406;-65
2022/11/07 06:07:04;;;;;;;;;;;11.60;91.20;;;;;;5011451;28;1014;-65
2022/11/07 06:09:31;;;;;;;;;;;11.60;91.40;;;;;;5012514;28;1195;-65
2022/11/07 06:11:59;;;;;;;;;;;11.60;91.60;;;;;;5015785;28;1256;-65
2022/11/07 06:14:27;;;;;;;;;;;11.50;91.40;;;;;;5012258;28;1034;-67
2022/11/07 06:16:55;;;;;;;;;;;11.50;91.30;;;;;;5013341;28;1002;-66
2022/11/07 06:19:24;;;;;;;;;;;11.60;91.40;;;;;;5007628;28;1408;-65
2022/11/07 06:21:51;;;;;;;;;;;11.50;91.40;;;;;;5017843;28;1899;-64
2022/11/07 06:24:19;;;;;;;;;;;11.50;91.50;;;;;;5013333;28;2002;-66
2022/11/07 06:26:47;;;;;;;;;;;11.40;91.60;;;;;;5018555;28;1005;-66
2022/11/07 06:29:15;;;;;;;;;;;11.50;91.70;;;;;;5013165;28;1200;-65
2022/11/07 06:31:42;;;;;;;;;;;11.50;91.50;;;;;;5023124;28;1669;-64
2022/11/07 06:34:10;;;;;;;;;;;11.40;91.80;;;;;;5013548;28;1066;-65
2022/11/07 06:36:39;;;;;;;;;;;11.40;91.90;;;;;;5014808;28;1675;-76
2022/11/07 06:39:06;;;;;;;;;;;11.40;91.80;;;;;;5011851;28;1069;-77
2022/11/07 06:41:34;;;;;;;;;;;11.40;91.70;;;;;;5018197;28;1980;-77
2022/11/07 06:44:02;;;;;;;;;;;11.40;91.80;;;;;;5027155;28;1038;-79
2022/11/07 06:46:29;;;;;;;;;;;11.40;91.70;;;;;;5027603;28;1014;-80
2022/11/07 06:48:57;;;;;;;;;;;11.40;91.80;;;;;;5022909;28;1096;-79
2022/11/07 06:51:25;;;;;;;;;;;11.40;91.80;;;;;;5024881;28;1714;-79
2022/11/07 06:53:54;;;;;;;;;;;11.70;91.90;;;;;;5039530;28;1114;-81
2022/11/07 06:56:21;;;;;;;;;;;11.60;91.90;;;;;;5035907;28;1005;-81
2022/11/07 06:58:49;;;;;;;;;;;11.40;91.70;;;;;;5027028;28;1124;-81
2022/11/07 07:01:17;;;;;;;;;;;11.80;92.00;;;;;;5025831;28;1991;-81
2022/11/07 07:03:44;;;;;;;;;;;11.50;91.90;;;;;;5032590;28;1101;-81
2022/11/07 07:06:12;;;;;;;;;;;11.50;91.90;;;;;;5037909;28;1010;-80
2022/11/07 07:08:40;;;;;;;;;;;11.60;91.70;;;;;;5033870;28;1369;-78
2022/11/07 07:11:10;;;;;;;;;;;11.70;91.60;;;;;;5027432;28;1275;-79
2022/11/07 07:13:38;;;;;;;;;;;11.70;91.80;;;;;;5030917;28;1181;-79
2022/11/07 07:16:06;;;;;;;;;;;11.80;91.70;;;;;;5031095;28;1065;-79
2022/11/07 07:18:35;;;;;;;;;;;11.90;91.40;;;;;;5030202;28;1112;-79
2022/11/07 07:21:03;;;;;;;;;;;12.00;91.40;;;;;;5033871;28;1954;-79
2022/11/07 07:23:33;;;;;;;;;;;12.40;91.50;;;;;;5029095;28;1697;-79
2022/11/07 07:26:01;;;;;;;;;;;12.10;91.20;;;;;;5026040;28;1223;-79
2022/11/07 07:28:30;;;;;;;;;;;12.10;91.10;;;;;;5021621;28;1092;-79
2022/11/07 07:31:07;;;;;;;;;;;12.20;91.10;;;;;;5031255;28;1284;-77
2022/11/07 07:33:35;;;;;;;;;;;12.20;91.10;;;;;;5022586;28;1029;-78
2022/11/07 07:36:03;;;;;;;;;;;12.20;90.90;;;;;;5023358;28;990;-78
2022/11/07 07:38:30;;;;;;;;;;;12.20;91.00;;;;;;5021697;28;1061;-78
2022/11/07 07:40:58;;;;;;;;;;;12.10;90.90;;;;;;5027168;28;1983;-79
2022/11/07 07:43:27;;;;;;;;;;;12.20;91.00;;;;;;5022958;28;1011;-76
2022/11/07 07:45:57;;;;;;;;;;;12.20;91.10;;;;;;5021563;28;997;-76
2022/11/07 07:48:25;;;;;;;;;;;12.20;90.90;;;;;;5008981;28;1937;-75
2022/11/07 07:50:53;;;;;;;;;;;12.20;91.10;;;;;;5012320;28;1282;-77
2022/11/07 07:53:21;;;;;;;;;;;12.20;91.00;;;;;;5023161;28;1660;-78
2022/11/07 07:55:48;;;;;;;;;;;12.10;91.10;;;;;;5023851;28;1722;-69
2022/11/07 07:58:16;;;;;;;;;;;12.10;91.10;;;;;;5014515;28;1805;-76
2022/11/07 08:00:44;;;;;;;;;;;12.10;91.20;;;;;;5016236;28;1296;-75
2022/11/07 08:03:13;;;;;;;;;;;12.10;91.10;;;;;;5015559;28;2053;-76
2022/11/07 08:05:41;;;;;;;;;;;12.30;91.10;;;;;;5019845;28;999;-75
2022/11/07 08:08:09;;;;;;;;;;;12.30;90.90;;;;;;5019276;28;3259;-76
2022/11/07 08:10:36;;;;;;;;;;;12.40;90.80;;;;;;5015270;28;1545;-76
2022/11/07 08:13:09;;;;;;;;;;;12.50;90.70;;;;;;5008980;28;1017;-75
2022/11/07 08:15:37;;;;;;;;;;;12.50;90.60;;;;;;5018667;28;1245;-76
2022/11/07 08:18:05;;;;;;;;;;;12.50;90.60;;;;;;5021718;28;1171;-75
2022/11/07 08:20:34;;;;;;;;;;;12.60;90.60;;;;;;5015881;28;1021;-76
2022/11/07 08:23:03;;;;;;;;;;;12.70;90.60;;;;;;5022351;28;1906;-76
2022/11/07 08:25:31;;;;;;;;;;;12.70;90.40;;;;;;5020238;28;1128;-75
2022/11/07 08:27:59;;;;;;;;;;;12.60;90.50;;;;;;5015920;28;1227;-76
2022/11/07 08:30:30;;;;;;;;;;;12.70;90.40;;;;;;5017368;28;1025;-76
2022/11/07 08:32:58;;;;;;;;;;;12.70;90.60;;;;;;5023725;28;1454;-77
2022/11/07 08:35:26;;;;;;;;;;;12.60;90.40;;;;;;5028190;28;1136;-76
2022/11/07 08:37:55;;;;;;;;;;;12.70;90.50;;;;;;5028799;28;1283;-77
2022/11/07 08:40:23;;;;;;;;;;;12.80;90.30;;;;;;5026469;28;1117;-76
2022/11/07 08:42:51;;;;;;;;;;;12.90;90.20;;;;;;5026519;28;1887;-77
2022/11/07 08:45:19;;;;;;;;;;;12.90;90.30;;;;;;5025818;28;1062;-76
2022/11/07 08:47:46;;;;;;;;;;;12.90;90.10;;;;;;5030847;28;1101;-75
2022/11/07 08:50:14;;;;;;;;;;;12.90;90.00;;;;;;5025727;28;1046;-75
2022/11/07 08:52:41;;;;;;;;;;;12.90;90.10;;;;;;5022073;28;1548;-77
2022/11/07 08:55:11;;;;;;;;;;;13.00;90.10;;;;;;5020978;28;1227;-75
2022/11/07 08:57:38;;;;;;;;;;;13.00;90.00;;;;;;5020589;28;1096;-75
2022/11/07 09:00:07;;;;;;;;;;;13.00;90.00;;;;;;5019542;28;1431;-76
2022/11/07 09:02:34;;;;;;;;;;;13.00;90.00;;;;;;5022646;28;1995;-75
2022/11/07 09:05:22;;;;;;;;;;;13.00;89.90;;;;;;5013386;28;1535;-76
2022/11/07 09:07:49;;;;;;;;;;;13.20;90.00;;;;;;5019817;28;1678;-73
2022/11/07 09:10:19;;;;;;;;;;;13.30;89.80;;;;;;5017476;28;1707;-73
2022/11/07 09:12:48;;;;;;;;;;;13.40;89.70;;;;;;5018175;28;1673;-74
2022/11/07 09:15:16;;;;;;;;;;;13.50;89.20;;;;;;5017483;28;1822;-73
2022/11/07 09:17:45;;;;;;;;;;;13.50;89.00;;;;;;5015885;28;1102;-74
2022/11/07 09:20:13;;;;;;;;;;;13.60;88.90;;;;;;5015336;28;1659;-74
2022/11/07 09:22:41;;;;;;;;;;;13.50;88.80;;;;;;5012554;28;2029;-73
2022/11/07 09:25:09;;;;;;;;;;;13.60;88.90;;;;;;5014003;28;1980;-73
2022/11/07 09:27:38;;;;;;;;;;;13.60;89.10;;;;;;5011501;28;1579;-73
2022/11/07 09:30:07;;;;;;;;;;;13.70;88.80;;;;;;5012254;28;1449;-74
2022/11/07 09:32:34;;;;;;;;;;;13.80;88.50;;;;;;5014996;28;1592;-75
2022/11/07 09:35:12;;;;;;;;;;;13.70;88.50;;;;;;5016414;28;1528;-73
2022/11/07 09:37:39;;;;;;;;;;;13.90;88.40;;;;;;5017943;28;1033;-71
2022/11/07 09:40:16;;;;;;;;;;;13.80;87.90;;;;;;5019834;28;966;-75
2022/11/07 09:42:49;;;;;;;;;;;13.80;88.20;;;;;;5019996;28;1910;-75
2022/11/07 09:45:17;;;;;;;;;;;13.80;88.30;;;;;;5020464;28;1108;-75
2022/11/07 09:47:46;;;;;;;;;;;13.90;87.90;;;;;;5011045;28;1465;-75
2022/11/07 09:50:17;;;;;;;;;;;14.10;87.60;;;;;;5009595;28;1022;-74
2022/11/07 09:52:48;;;;;;;;;;;14.30;87.10;;;;;;5006295;28;1707;-74
2022/11/07 09:55:19;;;;;;;;;;;14.40;86.80;;;;;;5014716;28;1664;-74
2022/11/07 09:57:48;;;;;;;;;;;14.50;85.90;;;;;;5016146;28;1782;-73
2022/11/07 10:00:17;;;;;;;;;;;14.50;85.80;;;;;;5020905;28;1746;-73
2022/11/07 10:02:46;;;;;;;;;;;14.40;86.30;;;;;;5031949;28;1895;-77
2022/11/07 10:05:24;;;;;;;;;;;14.30;86.20;;;;;;5024578;28;1017;-74
2022/11/07 10:07:58;;;;;;;;;;;14.40;86.30;;;;;;5016107;28;2015;-73
2022/11/07 10:10:32;;;;;;;;;;;14.40;86.40;;;;;;5019858;28;1588;-75
2022/11/07 10:13:09;;;;;;;;;;;14.50;86.40;;;;;;5018786;28;1456;-74
2022/11/07 10:15:44;;;;;;;;;;;14.50;86.10;;;;;;5018585;28;1490;-75
2022/11/07 10:18:16;;;;;;;;;;;14.60;86.20;;;;;;5014465;28;1156;-74
2022/11/07 10:20:51;;;;;;;;;;;14.70;86.30;;;;;;5017984;28;1283;-73
2022/11/07 10:23:45;;;;;;;;;;;14.60;86.30;;;;;;5014110;28;2001;-74
2022/11/07 10:26:14;;;;;;;;;;;14.60;87.00;;;;;;5012479;28;1481;-66
2022/11/07 10:28:45;;;;;;;;;;;14.50;86.90;;;;;;5012254;28;1104;-66
2022/11/07 10:31:13;;;;;;;;;;;14.40;87.10;;;;;;5014621;28;1402;-65
2022/11/07 10:33:44;;;;;;;;;;;14.50;89.90;;;;;;5013589;28;1158;-65
2022/11/07 10:36:17;;;;;;;;;;;14.70;89.40;;;;;;5021665;28;1114;-65
2022/11/07 10:38:45;;;;;;;;;;;14.60;87.70;;;;;;5016674;28;1080;-65
2022/11/07 10:41:16;;;;;;;;;;;14.70;88.00;;;;;;5016072;28;1564;-64
2022/11/07 10:43:48;;;;;;;;;;;14.70;87.40;;;;;;5015137;28;1984;-63
2022/11/07 10:46:17;;;;;;;;;;;14.60;87.10;;;;;;5012809;28;1109;-63
2022/11/07 10:48:55;;;;;;;;;;;14.90;86.80;;;;;;5018254;28;1129;-63
2022/11/07 10:51:35;;;;;;;;;;;15.00;86.90;;;;;;5012729;28;1298;-63
2022/11/07 10:54:03;;;;;;;;;;;14.90;86.00;;;;;;5010396;28;1077;-63
2022/11/07 10:56:31;;;;;;;;;;;14.90;85.90;;;;;;5020720;28;1021;-64
2022/11/07 10:59:01;;;;;;;;;;;14.90;86.20;;;;;;5019002;28;1110;-65
2022/11/07 11:01:28;;;;;;;;;;;14.90;85.60;;;;;;5011471;28;1703;-63
2022/11/07 11:03:56;;;;;;;;;;;14.90;86.00;;;;;;5022968;28;2065;-65
2022/11/07 11:06:29;;;;;;;;;;;15.10;85.30;;;;;;5017548;28;1129;-64
2022/11/07 11:08:58;;;;;;;;;;;15.00;85.20;;;;;;5021784;28;1160;-64
2022/11/07 11:11:30;;;;;;;;;;;15.20;85.20;;;;;;5019475;28;1378;-70
2022/11/07 11:14:03;;;;;;;;;;;15.10;84.40;;;;;;5014901;28;1164;-71
2022/11/07 11:16:34;;;;;;;;;;;15.00;84.50;;;;;;5016468;28;1078;-69
2022/11/07 11:19:02;;;;;;;;;;;14.80;84.80;;;;;;5015860;28;1009;-68
2022/11/07 11:21:38;;;;;;;;;;;14.90;84.90;;;;;;5012627;28;1363;-69
2022/11/07 11:24:12;;;;;;;;;;;15.00;85.00;;;;;;5006258;28;1910;-69
2022/11/07 11:26:42;;;;;;;;;;;15.00;84.70;;;;;;5011407;28;1511;-70
2022/11/07 11:29:17;;;;;;;;;;;14.90;84.90;;;;;;5012808;28;1197;-68
2022/11/07 11:31:46;;;;;;;;;;;14.90;85.30;;;;;;5011837;28;1537;-65
2022/11/07 11:34:16;;;;;;;;;;;14.90;84.80;;;;;;5011381;28;1894;-65
2022/11/07 11:36:45;;;;;;;;;;;14.70;85.40;;;;;;5014025;28;1599;-65
2022/11/07 11:39:25;;;;;;;;;;;14.70;85.20;;;;;;5009931;28;1100;-67
2022/11/07 11:41:54;;;;;;;;;;;14.70;85.60;;;;;;5013451;28;1348;-65
2022/11/07 11:44:26;;;;;;;;;;;14.80;85.40;;;;;;5012131;28;1910;-66
2022/11/07 11:46:57;;;;;;;;;;;14.70;85.90;;;;;;5014933;28;1331;-65
2022/11/07 11:49:29;;;;;;;;;;;14.70;85.90;;;;;;5008972;28;1121;-65
2022/11/07 11:52:00;;;;;;;;;;;14.60;85.90;;;;;;5013875;28;1424;-65
2022/11/07 11:54:28;;;;;;;;;;;14.60;86.00;;;;;;5024410;28;1161;-66
2022/11/07 11:56:58;;;;;;;;;;;14.70;86.00;;;;;;5019231;28;1085;-66
2022/11/07 11:59:44;;;;;;;;;;;14.70;86.10;;;;;;5019124;28;1448;-66
2022/11/07 12:02:21;;;;;;;;;;;14.50;86.20;;;;;;5020783;28;1832;-65
2022/11/07 12:04:55;;;;;;;;;;;14.60;86.40;;;;;;5021705;28;1973;-66
2022/11/07 12:07:32;;;;;;;;;;;14.70;86.30;;;;;;5018402;28;1057;-65
2022/11/07 12:10:02;;;;;;;;;;;14.70;85.80;;;;;;5029691;28;1257;-66
2022/11/07 12:12:37;;;;;;;;;;;14.70;86.00;;;;;;5036862;28;1307;-66
2022/11/07 12:15:20;;;;;;;;;;;14.70;86.30;;;;;;5018790;28;1022;-68
2022/11/07 12:17:52;;;;;;;;;;;14.80;86.20;;;;;;5020804;28;1081;-68
2022/11/07 12:20:24;;;;;;;;;;;14.70;86.00;;;;;;5010316;28;1523;-69
2022/11/07 12:23:03;;;;;;;;;;;14.60;86.20;;;;;;5016917;28;1303;-70
2022/11/07 12:25:35;;;;;;;;;;;14.60;86.40;;;;;;5016082;28;1906;-69
2022/11/07 12:28:07;;;;;;;;;;;14.70;86.40;;;;;;5017379;28;1017;-70
2022/11/07 12:30:39;;;;;;;;;;;14.60;86.60;;;;;;5016247;28;1360;-70
2022/11/07 12:33:12;;;;;;;;;;;14.60;86.60;;;;;;5023352;28;2110;-71
2022/11/07 12:35:43;;;;;;;;;;;14.60;86.50;;;;;;5016615;28;1086;-70
2022/11/07 12:38:29;;;;;;;;;;;14.50;86.80;;;;;;5015488;28;1105;-70
2022/11/07 12:40:59;;;;;;;;;;;14.70;86.60;;;;;;5015135;28;1339;-69
2022/11/07 12:43:33;;;;;;;;;;;14.70;86.60;;;;;;5019502;28;1045;-70
2022/11/07 12:46:05;;;;;;;;;;;14.80;86.30;;;;;;5009554;28;1978;-70
2022/11/07 12:48:44;;;;;;;;;;;14.70;86.30;;;;;;5018758;28;1034;-69
2022/11/07 12:51:15;;;;;;;;;;;14.60;86.30;;;;;;5025430;28;1413;-69
2022/11/07 12:53:46;;;;;;;;;;;14.70;86.70;;;;;;5018373;28;1680;-70
2022/11/07 12:56:17;;;;;;;;;;;14.70;86.60;;;;;;5017966;28;961;-69
2022/11/07 12:58:45;;;;;;;;;;;14.70;86.20;;;;;;5012968;28;1069;-70
2022/11/07 13:01:15;;;;;;;;;;;14.70;86.30;;;;;;5013190;28;1311;-70
2022/11/07 13:03:51;;;;;;;;;;;14.70;86.50;;;;;;5018802;28;1014;-70
2022/11/07 13:06:23;;;;;;;;;;;14.60;86.90;;;;;;5016463;28;1519;-69
2022/11/07 13:08:56;;;;;;;;;;;14.80;86.80;;;;;;5016332;28;998;-70
2022/11/07 13:11:27;;;;;;;;;;;14.70;86.50;;;;;;5017498;28;1317;-69
2022/11/07 13:14:01;;;;;;;;;;;14.60;86.70;;;;;;5024419;28;1304;-70
2022/11/07 13:16:29;;;;;;;;;;;14.70;86.60;;;;;;5015867;28;1687;-70
2022/11/07 13:19:09;;;;;;;;;;;14.70;87.00;;;;;;5015590;28;1073;-69
2022/11/07 13:21:40;;;;;;;;;;;14.60;87.30;;;;;;5016110;28;1300;-71
2022/11/07 13:24:08;;;;;;;;;;;14.70;87.40;;;;;;5009872;28;1906;-71
2022/11/07 13:26:36;;;;;;;;;;;14.70;87.30;;;;;;5017024;28;1117;-71
2022/11/07 13:29:23;;;;;;;;;;;14.80;87.20;;;;;;5018118;28;1105;-70
2022/11/07 13:32:03;;;;;;;;;;;14.90;87.10;;;;;;5015443;28;1293;-71
2022/11/07 13:34:39;;;;;;;;;;;14.90;87.20;;;;;;5018564;28;1089;-70
2022/11/07 13:37:08;;;;;;;;;;;14.90;87.30;;;;;;5023914;28;1089;-70
2022/11/07 13:39:36;;;;;;;;;;;14.90;87.40;;;;;;5010886;28;1049;-70
2022/11/07 13:42:04;;;;;;;;;;;14.90;88.20;;;;;;5018880;28;1296;-73
2022/11/07 13:44:34;;;;;;;;;;;14.80;87.60;;;;;;5015533;28;1911;-70
2022/11/07 13:47:04;;;;;;;;;;;14.80;88.10;;;;;;5014621;28;1038;-71
2022/11/07 13:49:33;;;;;;;;;;;14.70;88.70;;;;;;5014783;28;1096;-71
2022/11/07 13:52:04;;;;;;;;;;;14.60;89.20;;;;;;5019054;28;1388;-70
2022/11/07 13:54:34;;;;;;;;;;;14.60;89.20;;;;;;5016284;28;1034;-70
2022/11/07 13:57:03;;;;;;;;;;;14.50;89.50;;;;;;5019404;28;1327;-70
2022/11/07 13:59:35;;;;;;;;;;;14.40;90.00;;;;;;5017084;28;1005;-72
2022/11/07 14:02:03;;;;;;;;;;;14.40;90.30;;;;;;5016391;28;1363;-70
2022/11/07 14:04:31;;;;;;;;;;;14.50;90.40;;;;;;5012946;28;1990;-71
2022/11/07 14:07:21;;;;;;;;;;;14.50;90.30;;;;;;5019790;28;1555;-70
2022/11/07 14:09:56;;;;;;;;;;;14.50;90.40;;;;;;5010517;28;1152;-70
2022/11/07 14:12:24;;;;;;;;;;;14.50;90.50;;;;;;5014382;28;1444;-70
2022/11/07 14:14:54;;;;;;;;;;;14.50;90.50;;;;;;5010935;28;1167;-70
2022/11/07 14:17:23;;;;;;;;;;;14.50;90.50;;;;;;5014811;28;1643;-70
2022/11/07 14:19:51;;;;;;;;;;;14.40;90.60;;;;;;5037590;28;1515;-70
2022/11/07 14:22:22;;;;;;;;;;;14.40;90.80;;;;;;5026100;28;1457;-68
2022/11/07 14:24:51;;;;;;;;;;;14.30;90.90;;;;;;5014817;28;1907;-70
2022/11/07 14:27:20;;;;;;;;;;;14.30;91.10;;;;;;5019311;28;1281;-70
2022/11/07 14:29:50;;;;;;;;;;;14.20;91.00;;;;;;5018816;28;1281;-70
2022/11/07 14:32:18;;;;;;;;;;;14.30;91.20;;;;;;5011292;28;1619;-71
2022/11/07 14:34:47;;;;;;;;;;;14.20;91.30;;;;;;5016411;28;1343;-69
2022/11/07 14:37:15;;;;;;;;;;;14.20;91.20;;;;;;5016858;28;1101;-69
2022/11/07 14:39:44;;;;;;;;;;;14.20;91.20;;;;;;5020836;28;1341;-70
2022/11/07 14:42:15;;;;;;;;;;;14.20;91.20;;;;;;5012537;28;1557;-71
2022/11/07 14:44:45;;;;;;;;;;;14.20;91.30;;;;;;5013328;28;1906;-70
2022/11/07 14:47:22;;;;;;;;;;;14.20;91.20;;;;;;5009391;28;1068;-70
2022/11/07 14:49:51;;;;;;;;;;;14.20;91.30;;;;;;5014469;28;1188;-71
2022/11/07 14:52:21;;;;;;;;;;;14.20;91.30;;;;;;5013855;28;1469;-70
2022/11/07 14:54:53;;;;;;;;;;;14.20;91.20;;;;;;5009955;28;1709;-69
2022/11/07 14:57:21;;;;;;;;;;;14.20;91.30;;;;;;5017329;28;1552;-69
2022/11/07 14:59:49;;;;;;;;;;;14.10;91.20;;;;;;5017946;28;1115;-69
2022/11/07 15:02:21;;;;;;;;;;;14.20;91.30;;;;;;5016206;28;1557;-69
2022/11/07 15:04:50;;;;;;;;;;;14.10;91.60;;;;;;5013541;28;1128;-70